createdAt,value
2019-04-30T00:00:22.786Z,94.74
2019-04-30T00:01:24.789Z,94.46
2019-04-30T00:02:29.304Z,94.56
2019-04-30T00:03:25.013Z,94.84
2019-04-30T00:04:25.373Z,94.74
2019-04-30T00:05:25.216Z,93.89
2019-04-30T00:06:27.291Z,93.70
2019-04-30T00:07:25.754Z,94.74
2019-04-30T00:08:30.160Z,95.03
2019-04-30T00:09:26.599Z,93.70
2019-04-30T00:10:36.091Z,92.61
2019-04-30T00:11:27.455Z,93.18
2019-04-30T00:12:30.918Z,92.99
2019-04-30T00:13:28.297Z,92.23
2019-04-30T00:14:36.828Z,93.04
2019-04-30T00:15:29.151Z,92.99
2019-04-30T00:16:31.018Z,93.23
2019-04-30T00:17:30.025Z,92.61
2019-04-30T00:18:30.716Z,92.80
2019-04-30T00:19:30.851Z,92.85
2019-04-30T00:20:35.187Z,93.18
2019-04-30T00:21:31.730Z,92.66
2019-04-30T00:22:34.289Z,92.42
2019-04-30T00:23:32.619Z,92.42
2019-04-30T00:24:32.974Z,92.46
2019-04-30T00:25:35.355Z,91.75
2019-04-30T00:26:35.458Z,91.75
2019-04-30T00:27:35.629Z,91.56
2019-04-30T00:28:35.384Z,91.56
2019-04-30T00:29:35.639Z,91.66
2019-04-30T00:30:39.388Z,91.09
2019-04-30T00:31:35.939Z,90.99
2019-04-30T00:32:39.056Z,91.09
2019-04-30T00:33:36.793Z,90.52
2019-04-30T00:34:39.335Z,90.52
2019-04-30T00:35:37.635Z,89.76
2019-04-30T00:36:38.057Z,89.86
2019-04-30T00:37:38.486Z,89.38
2019-04-30T00:38:38.909Z,89.38
2019-04-30T00:39:39.330Z,89.57
2019-04-30T00:40:39.754Z,89.57
2019-04-30T00:41:44.090Z,89.76
2019-04-30T00:42:40.600Z,90.42
2019-04-30T00:43:46.597Z,90.33
2019-04-30T00:44:41.449Z,90.52
2019-04-30T00:45:44.822Z,90.14
2019-04-30T00:46:42.303Z,89.76
2019-04-30T00:47:46.464Z,89.95
2019-04-30T00:48:43.150Z,89.76
2019-04-30T00:49:44.863Z,89.00
2019-04-30T00:50:46.875Z,88.90
2019-04-30T00:51:45.378Z,89.00
2019-04-30T00:52:47.356Z,89.38
2019-04-30T00:53:51.161Z,90.42
2019-04-30T00:54:45.723Z,88.90
2019-04-30T00:55:48.570Z,88.62
2019-04-30T00:56:50.427Z,89.19
2019-04-30T00:57:47.531Z,89.57
2019-04-30T00:58:47.388Z,88.81
2019-04-30T00:59:48.115Z,89.19
2019-04-30T01:00:48.237Z,88.53
2019-04-30T01:01:48.660Z,89.19
2019-04-30T01:02:49.095Z,88.15
2019-04-30T01:03:49.667Z,88.43
2019-04-30T01:04:49.934Z,87.19
2019-04-30T01:05:50.355Z,88.24
2019-04-30T01:06:50.780Z,87.67
2019-04-30T01:07:51.992Z,87.67
2019-04-30T01:08:51.622Z,87.67
2019-04-30T01:09:52.050Z,87.01
2019-04-30T01:10:52.472Z,87.67
2019-04-30T01:11:52.895Z,87.29
2019-04-30T01:12:53.327Z,87.01
2019-04-30T01:13:53.989Z,86.63
2019-04-30T01:14:54.181Z,86.58
2019-04-30T01:15:54.594Z,86.24
2019-04-30T01:16:55.016Z,85.91
2019-04-30T01:17:55.439Z,86.15
2019-04-30T01:18:55.862Z,86.05
2019-04-30T01:19:56.284Z,85.06
2019-04-30T01:20:58.690Z,85.44
2019-04-30T01:21:57.133Z,85.44
2019-04-30T01:22:58.690Z,85.53
2019-04-30T01:23:59.112Z,84.49
2019-04-30T01:25:02.899Z,85.25
2019-04-30T01:25:58.835Z,85.63
2019-04-30T01:27:02.122Z,85.44
2019-04-30T01:27:59.675Z,85.53
2019-04-30T01:29:02.115Z,85.25
2019-04-30T01:30:00.533Z,85.16
2019-04-30T01:31:02.099Z,84.87
2019-04-30T01:32:01.376Z,85.06
2019-04-30T01:33:01.806Z,85.44
2019-04-30T01:34:05.074Z,85.25
2019-04-30T01:35:02.642Z,85.25
2019-04-30T01:36:04.210Z,85.16
2019-04-30T01:37:03.487Z,85.53
2019-04-30T01:38:08.340Z,84.49
2019-04-30T01:39:04.339Z,83.92
2019-04-30T01:40:10.534Z,84.30
2019-04-30T01:41:05.182Z,84.21
2019-04-30T01:42:09.875Z,84.30
2019-04-30T01:43:06.032Z,84.01
2019-04-30T01:44:08.661Z,84.59
2019-04-30T01:45:08.662Z,84.40
2019-04-30T01:46:09.268Z,83.92
2019-04-30T01:47:08.960Z,84.30
2019-04-30T01:48:10.748Z,82.88
2019-04-30T01:49:08.670Z,84.01
2019-04-30T01:50:09.293Z,85.25
2019-04-30T01:51:13.325Z,85.72
2019-04-30T01:52:09.837Z,82.88
2019-04-30T01:53:13.179Z,83.54
2019-04-30T01:54:13.767Z,82.97
2019-04-30T01:55:11.113Z,82.78
2019-04-30T01:56:11.534Z,83.36
2019-04-30T01:57:11.955Z,83.64
2019-04-30T01:58:12.415Z,82.78
2019-04-30T01:59:12.809Z,83.07
2019-04-30T02:00:13.225Z,83.83
2019-04-30T02:01:13.647Z,84.11
2019-04-30T02:02:14.072Z,83.64
2019-04-30T02:03:14.516Z,83.64
2019-04-30T02:04:14.923Z,84.01
2019-04-30T02:05:15.348Z,84.30
2019-04-30T02:06:15.764Z,84.01
2019-04-30T02:07:16.195Z,83.64
2019-04-30T02:08:16.652Z,82.97
2019-04-30T02:09:18.919Z,83.45
2019-04-30T02:10:18.598Z,83.07
2019-04-30T02:11:18.968Z,83.16
2019-04-30T02:12:21.664Z,83.54
2019-04-30T02:13:18.860Z,83.16
2019-04-30T02:14:19.147Z,83.64
2019-04-30T02:15:19.575Z,84.01
2019-04-30T02:16:21.122Z,83.16
2019-04-30T02:17:20.422Z,82.69
2019-04-30T02:18:20.865Z,82.40
2019-04-30T02:19:21.276Z,82.21
2019-04-30T02:20:21.690Z,82.31
2019-04-30T02:21:22.117Z,82.12
2019-04-30T02:22:22.536Z,82.59
2019-04-30T02:23:22.974Z,82.50
2019-04-30T02:24:23.392Z,81.32
2019-04-30T02:25:23.840Z,81.23
2019-04-30T02:26:24.236Z,81.23
2019-04-30T02:27:24.662Z,81.51
2019-04-30T02:28:25.087Z,82.40
2019-04-30T02:29:25.505Z,80.94
2019-04-30T02:30:25.925Z,81.55
2019-04-30T02:31:26.353Z,80.84
2019-04-30T02:32:26.767Z,81.32
2019-04-30T02:33:27.192Z,81.26
2019-04-30T02:34:30.228Z,81.45
2019-04-30T02:35:28.857Z,81.26
2019-04-30T02:36:29.908Z,82.08
2019-04-30T02:37:30.115Z,81.65
2019-04-30T02:38:30.009Z,81.17
2019-04-30T02:39:30.299Z,81.55
2019-04-30T02:40:30.326Z,80.37
2019-04-30T02:41:30.574Z,80.84
2019-04-30T02:42:31.001Z,80.65
2019-04-30T02:43:31.444Z,81.07
2019-04-30T02:44:31.853Z,80.75
2019-04-30T02:45:32.268Z,79.80
2019-04-30T02:46:32.696Z,79.71
2019-04-30T02:47:33.131Z,79.99
2019-04-30T02:48:33.564Z,80.65
2019-04-30T02:49:33.966Z,80.65
2019-04-30T02:50:34.379Z,80.94
2019-04-30T02:51:34.876Z,81.32
2019-04-30T02:52:35.226Z,81.32
2019-04-30T02:53:35.654Z,80.65
2019-04-30T02:54:36.167Z,80.65
2019-04-30T02:55:36.504Z,80.75
2019-04-30T02:56:39.802Z,80.27
2019-04-30T02:57:39.526Z,79.71
2019-04-30T02:58:40.834Z,80.18
2019-04-30T02:59:40.266Z,80.65
2019-04-30T03:00:39.344Z,80.75
2019-04-30T03:01:40.202Z,80.08
2019-04-30T03:02:39.644Z,81.79
2019-04-30T03:03:42.701Z,80.65
2019-04-30T03:04:40.301Z,81.13
2019-04-30T03:05:40.724Z,81.04
2019-04-30T03:06:41.157Z,80.94
2019-04-30T03:07:41.581Z,80.94
2019-04-30T03:08:41.999Z,80.37
2019-04-30T03:09:42.416Z,80.27
2019-04-30T03:10:42.867Z,80.18
2019-04-30T03:11:43.266Z,80.18
2019-04-30T03:12:43.685Z,80.56
2019-04-30T03:13:44.107Z,79.14
2019-04-30T03:14:44.533Z,79.52
2019-04-30T03:15:44.951Z,79.90
2019-04-30T03:16:45.378Z,79.23
2019-04-30T03:17:45.800Z,78.75
2019-04-30T03:18:46.222Z,78.66
2019-04-30T03:19:46.641Z,78.85
2019-04-30T03:20:49.548Z,78.47
2019-04-30T03:21:49.976Z,78.28
2019-04-30T03:22:47.905Z,77.14
2019-04-30T03:23:50.357Z,77.20
2019-04-30T03:24:50.086Z,76.57
2019-04-30T03:25:50.127Z,76.20
2019-04-30T03:26:50.003Z,75.81
2019-04-30T03:27:50.028Z,76.29
2019-04-30T03:28:50.468Z,75.72
2019-04-30T03:29:50.873Z,75.21
2019-04-30T03:30:57.209Z,74.64
2019-04-30T03:31:52.693Z,75.05
2019-04-30T03:32:56.584Z,75.15
2019-04-30T03:33:52.705Z,76.01
2019-04-30T03:34:53.021Z,75.91
2019-04-30T03:35:54.870Z,75.78
2019-04-30T03:36:53.835Z,74.16
2019-04-30T03:37:54.250Z,73.97
2019-04-30T03:38:54.669Z,74.64
2019-04-30T03:39:55.091Z,74.96
2019-04-30T03:40:55.515Z,73.97
2019-04-30T03:41:55.937Z,74.39
2019-04-30T03:42:59.848Z,75.11
2019-04-30T03:44:16.056Z,75.68
2019-04-30T03:44:59.261Z,75.53
2019-04-30T03:45:59.304Z,74.92
2019-04-30T03:46:59.395Z,74.64
2019-04-30T03:48:00.307Z,75.40
2019-04-30T03:49:00.207Z,75.40
2019-04-30T03:49:59.989Z,75.31
2019-04-30T03:51:01.184Z,75.11
2019-04-30T03:52:00.192Z,74.83
2019-04-30T03:53:00.767Z,75.05
2019-04-30T03:54:01.003Z,75.91
2019-04-30T03:55:02.899Z,75.31
2019-04-30T03:56:01.857Z,75.31
2019-04-30T03:57:02.294Z,74.83
2019-04-30T03:58:02.693Z,75.11
2019-04-30T03:59:03.137Z,74.83
2019-04-30T04:00:03.557Z,75.81
2019-04-30T04:01:03.960Z,75.49
2019-04-30T04:02:04.399Z,76.10
2019-04-30T04:03:04.814Z,75.68
2019-04-30T04:04:05.236Z,75.49
2019-04-30T04:05:05.649Z,75.68
2019-04-30T04:06:06.078Z,74.92
2019-04-30T04:07:06.503Z,75.96
2019-04-30T04:08:09.427Z,76.10
2019-04-30T04:09:10.127Z,77.01
2019-04-30T04:10:10.159Z,77.01
2019-04-30T04:11:10.107Z,76.39
2019-04-30T04:12:11.863Z,76.73
2019-04-30T04:13:10.364Z,77.29
2019-04-30T04:14:09.450Z,77.20
2019-04-30T04:15:10.615Z,76.95
2019-04-30T04:16:10.297Z,77.11
2019-04-30T04:17:10.718Z,76.73
2019-04-30T04:18:11.145Z,77.24
2019-04-30T04:19:11.569Z,77.20
2019-04-30T04:20:11.989Z,77.58
2019-04-30T04:21:16.761Z,77.90
2019-04-30T04:22:12.833Z,78.47
2019-04-30T04:23:13.260Z,78.28
2019-04-30T04:24:13.673Z,78.72
2019-04-30T04:25:14.098Z,78.62
2019-04-30T04:26:14.526Z,78.19
2019-04-30T04:27:14.943Z,78.19
2019-04-30T04:28:15.368Z,79.23
2019-04-30T04:29:15.794Z,79.52
2019-04-30T04:30:16.211Z,79.90
2019-04-30T04:31:19.082Z,80.56
2019-04-30T04:32:17.057Z,80.75
2019-04-30T04:33:19.755Z,80.27
2019-04-30T04:34:19.668Z,80.37
2019-04-30T04:35:19.769Z,80.46
2019-04-30T04:36:19.995Z,80.46
2019-04-30T04:37:20.131Z,81.41
2019-04-30T04:38:20.391Z,80.94
2019-04-30T04:39:20.421Z,80.84
2019-04-30T04:40:21.200Z,80.84
2019-04-30T04:41:20.857Z,81.13
2019-04-30T04:42:21.285Z,81.79
2019-04-30T04:43:21.705Z,81.60
2019-04-30T04:44:22.131Z,81.98
2019-04-30T04:45:22.573Z,81.60
2019-04-30T04:46:22.968Z,81.51
2019-04-30T04:47:23.399Z,81.98
2019-04-30T04:48:23.815Z,81.70
2019-04-30T04:49:24.238Z,81.98
2019-04-30T04:50:24.657Z,81.88
2019-04-30T04:51:36.792Z,81.41
2019-04-30T04:52:25.504Z,82.36
2019-04-30T04:53:25.930Z,81.79
2019-04-30T04:54:26.354Z,81.41
2019-04-30T04:55:26.775Z,82.17
2019-04-30T04:56:30.417Z,82.27
2019-04-30T04:57:30.064Z,82.46
2019-04-30T04:58:30.189Z,82.74
2019-04-30T04:59:29.693Z,83.59
2019-04-30T05:00:29.369Z,83.40
2019-04-30T05:01:29.316Z,83.12
2019-04-30T05:02:32.545Z,83.59
2019-04-30T05:03:30.159Z,83.97
2019-04-30T05:04:30.581Z,83.97
2019-04-30T05:05:30.998Z,83.50
2019-04-30T05:06:31.436Z,84.26
2019-04-30T05:07:31.851Z,84.83
2019-04-30T05:08:32.271Z,85.06
2019-04-30T05:09:32.711Z,84.87
2019-04-30T05:10:33.124Z,85.25
2019-04-30T05:11:33.538Z,85.11
2019-04-30T05:12:33.960Z,85.35
2019-04-30T05:13:34.747Z,85.30
2019-04-30T05:14:34.814Z,85.25
2019-04-30T05:15:35.238Z,85.53
2019-04-30T05:16:35.657Z,86.11
2019-04-30T05:17:36.076Z,87.15
2019-04-30T05:18:36.501Z,86.87
2019-04-30T05:19:38.526Z,87.15
2019-04-30T05:20:41.242Z,86.96
2019-04-30T05:21:42.664Z,87.24
2019-04-30T05:22:38.918Z,87.72
2019-04-30T05:23:41.088Z,87.62
2019-04-30T05:24:40.854Z,87.72
2019-04-30T05:25:39.469Z,87.24
2019-04-30T05:26:39.888Z,88.39
2019-04-30T05:27:40.310Z,89.09
2019-04-30T05:28:40.742Z,88.43
2019-04-30T05:29:41.168Z,88.90
2019-04-30T05:30:41.588Z,89.19
2019-04-30T05:31:42.007Z,89.67
2019-04-30T05:32:42.427Z,90.33
2019-04-30T05:33:42.853Z,89.57
2019-04-30T05:34:43.273Z,90.33
2019-04-30T05:35:43.707Z,90.52
2019-04-30T05:36:44.159Z,90.33
2019-04-30T05:37:44.555Z,90.42
2019-04-30T05:38:44.976Z,90.71
2019-04-30T05:39:45.395Z,90.61
2019-04-30T05:40:45.816Z,90.52
2019-04-30T05:41:46.244Z,90.14
2019-04-30T05:42:46.669Z,91.09
2019-04-30T05:43:48.807Z,91.19
2019-04-30T05:44:49.508Z,91.75
2019-04-30T05:45:49.197Z,91.75
2019-04-30T05:46:49.416Z,92.04
2019-04-30T05:47:50.483Z,92.66
2019-04-30T05:48:49.601Z,92.80
2019-04-30T05:49:49.631Z,92.61
2019-04-30T05:50:51.783Z,92.42
2019-04-30T05:51:55.508Z,93.04
2019-04-30T05:52:50.903Z,92.99
2019-04-30T05:53:51.333Z,93.84
2019-04-30T05:54:51.760Z,93.79
2019-04-30T05:55:52.199Z,92.94
2019-04-30T05:56:52.610Z,93.51
2019-04-30T05:57:56.362Z,93.99
2019-04-30T05:58:53.451Z,93.56
2019-04-30T05:59:53.879Z,94.08
2019-04-30T06:00:54.302Z,94.18
2019-04-30T06:01:54.736Z,94.84
2019-04-30T06:02:55.153Z,94.84
2019-04-30T06:03:55.582Z,94.84
2019-04-30T06:04:56.003Z,94.74
2019-04-30T06:05:56.422Z,94.74
2019-04-30T06:06:58.636Z,94.93
2019-04-30T06:07:59.193Z,94.93
2019-04-30T06:09:06.256Z,95.22
2019-04-30T06:09:59.655Z,95.32
2019-04-30T06:10:59.738Z,95.51
2019-04-30T06:11:59.153Z,95.32
2019-04-30T06:12:59.517Z,95.89
2019-04-30T06:13:59.820Z,96.36
2019-04-30T06:15:00.250Z,96.89
2019-04-30T06:16:00.684Z,97.74
2019-04-30T06:17:01.112Z,97.36
2019-04-30T06:18:10.868Z,98.22
2019-04-30T06:19:01.944Z,97.93
2019-04-30T06:20:02.372Z,98.69
2019-04-30T06:21:02.792Z,98.60
2019-04-30T06:22:07.932Z,98.60
2019-04-30T06:23:03.662Z,98.79
2019-04-30T06:24:04.072Z,98.97
2019-04-30T06:25:04.502Z,99.36
2019-04-30T06:26:09.630Z,98.79
2019-04-30T06:27:05.346Z,99.45
2019-04-30T06:28:05.786Z,99.45
2019-04-30T06:29:06.203Z,99.26
2019-04-30T06:30:06.619Z,99.99
2019-04-30T06:31:09.027Z,99.99
2019-04-30T06:32:08.655Z,99.88
2019-04-30T06:33:09.311Z,99.12
2019-04-30T06:34:08.598Z,99.99
2019-04-30T06:35:09.175Z,99.99
2019-04-30T06:36:11.107Z,99.99
2019-04-30T06:37:09.848Z,99.99
2019-04-30T06:38:10.022Z,99.98
2019-04-30T06:39:10.461Z,99.98
2019-04-30T06:40:11.812Z,99.84
2019-04-30T06:41:11.358Z,99.55
2019-04-30T06:42:12.945Z,98.88
2019-04-30T06:43:12.188Z,98.88
2019-04-30T06:44:12.587Z,98.69
2019-04-30T06:45:13.018Z,97.99
2019-04-30T06:46:13.463Z,98.13
2019-04-30T06:47:13.875Z,94.84
2019-04-30T06:48:14.301Z,92.27
2019-04-30T06:49:14.732Z,90.69
2019-04-30T06:50:15.181Z,88.40
2019-04-30T06:51:15.585Z,85.05
2019-04-30T06:52:20.513Z,82.34
2019-04-30T06:53:16.444Z,82.20
2019-04-30T06:54:19.039Z,83.12
2019-04-30T06:55:19.093Z,85.31
2019-04-30T06:56:19.446Z,84.88
2019-04-30T06:57:19.831Z,83.16
2019-04-30T06:58:20.475Z,82.68
2019-04-30T06:59:20.342Z,81.20
2019-04-30T07:00:23.351Z,79.14
2019-04-30T07:01:19.912Z,79.17
2019-04-30T07:02:20.349Z,76.94
2019-04-30T07:03:20.779Z,76.90
2019-04-30T07:04:21.214Z,77.89
2019-04-30T07:05:21.647Z,75.60
2019-04-30T07:06:29.650Z,74.21
2019-04-30T07:07:23.232Z,73.63
2019-04-30T07:08:22.961Z,72.30
2019-04-30T07:09:26.753Z,72.61
2019-04-30T07:10:23.841Z,74.96
2019-04-30T07:11:24.290Z,77.25
2019-04-30T07:12:27.835Z,74.93
2019-04-30T07:13:25.164Z,75.09
2019-04-30T07:14:25.607Z,75.57
2019-04-30T07:15:26.051Z,74.17
2019-04-30T07:16:26.491Z,74.24
2019-04-30T07:17:29.083Z,69.89
2019-04-30T07:18:28.839Z,67.75
2019-04-30T07:19:34.726Z,70.20
2019-04-30T07:20:29.120Z,70.17
2019-04-30T07:21:29.469Z,68.01
2019-04-30T07:22:39.692Z,64.79
2019-04-30T07:23:29.607Z,65.39
2019-04-30T07:24:30.034Z,65.26
2019-04-30T07:25:30.478Z,65.93
2019-04-30T07:26:30.930Z,65.71
2019-04-30T07:27:32.297Z,64.15
2019-04-30T07:28:43.725Z,63.93
2019-04-30T07:29:32.260Z,62.97
2019-04-30T07:30:34.467Z,62.55
2019-04-30T07:31:33.169Z,60.70
2019-04-30T07:32:33.603Z,58.39
2019-04-30T07:33:34.054Z,58.42
2019-04-30T07:34:37.041Z,59.90
2019-04-30T07:35:34.951Z,61.88
2019-04-30T07:36:46.794Z,55.27
2019-04-30T07:37:35.856Z,57.13
2019-04-30T07:38:45.720Z,61.02
2019-04-30T07:39:36.753Z,62.27
2019-04-30T07:40:38.964Z,62.52
2019-04-30T07:41:37.649Z,62.08
2019-04-30T07:42:44.450Z,62.68
2019-04-30T07:43:59.882Z,63.80
2019-04-30T07:47:46.301Z,61.85
2019-04-30T07:48:46.752Z,62.24
2019-04-30T07:50:42.036Z,61.60
2019-04-30T07:51:42.336Z,59.52
2019-04-30T07:53:36.506Z,58.37
2019-04-30T07:54:36.889Z,56.19
2019-04-30T07:56:37.320Z,52.83
2019-04-30T07:57:32.477Z,53.83
2019-04-30T07:59:30.032Z,56.71
2019-04-30T08:00:30.993Z,54.15
2019-04-30T08:02:24.603Z,53.31
2019-04-30T08:03:24.469Z,53.44
2019-04-30T08:05:19.867Z,48.93
2019-04-30T08:06:22.058Z,49.65
2019-04-30T08:08:21.226Z,46.67
2019-04-30T08:09:14.272Z,46.31
2019-04-30T08:11:09.369Z,47.03
2019-04-30T08:12:10.460Z,46.15
2019-04-30T08:14:04.418Z,41.93
2019-04-30T08:15:04.499Z,44.46
2019-04-30T08:16:59.147Z,46.43
2019-04-30T08:18:03.621Z,48.64
2019-04-30T08:19:54.226Z,46.26
2019-04-30T08:20:54.671Z,45.85
2019-04-30T08:22:50.322Z,48.21
2019-04-30T08:23:50.737Z,45.25
2019-04-30T08:25:45.713Z,41.63
2019-04-30T08:26:45.852Z,39.51
2019-04-30T08:28:40.532Z,40.28
2019-04-30T08:29:40.951Z,39.39
2019-04-30T08:31:35.576Z,35.75
2019-04-30T08:32:36.042Z,38.39
2019-04-30T08:34:30.699Z,38.58
2019-04-30T08:35:31.160Z,36.46
2019-04-30T08:37:25.799Z,36.07
2019-04-30T08:38:26.285Z,36.61
2019-04-30T08:40:21.099Z,34.97
2019-04-30T08:41:21.544Z,34.36
2019-04-30T08:43:16.226Z,34.28
2019-04-30T08:44:16.646Z,30.81
2019-04-30T08:46:11.286Z,31.17
2019-04-30T08:47:11.742Z,33.20
2019-04-30T08:49:09.216Z,34.13
2019-04-30T08:50:09.794Z,32.34
2019-04-30T08:52:02.454Z,29.44
2019-04-30T08:53:02.912Z,28.30
2019-04-30T08:55:11.134Z,29.46
2019-04-30T08:55:59.171Z,29.13
2019-04-30T08:57:52.704Z,26.17
2019-04-30T08:58:54.879Z,26.95
2019-04-30T09:00:48.629Z,25.90
2019-04-30T09:01:48.754Z,25.31
2019-04-30T09:03:42.942Z,24.88
2019-04-30T09:04:43.405Z,25.05
2019-04-30T09:06:38.978Z,28.23
2019-04-30T09:07:38.762Z,30.15
2019-04-30T09:08:40.032Z,30.21
2019-04-30T09:09:39.501Z,29.01
2019-04-30T09:10:39.948Z,26.79
2019-04-30T09:11:51.632Z,25.79
2019-04-30T09:12:40.878Z,24.21
2019-04-30T09:13:41.341Z,25.77
2019-04-30T09:14:41.825Z,24.37
2019-04-30T09:15:42.273Z,23.65
2019-04-30T09:16:42.772Z,25.51
2019-04-30T09:17:43.237Z,24.33
2019-04-30T09:18:43.682Z,25.59
2019-04-30T09:19:44.148Z,23.86
2019-04-30T09:20:44.621Z,23.28
2019-04-30T09:21:45.090Z,24.68
2019-04-30T09:22:45.558Z,22.41
2019-04-30T09:23:50.533Z,22.61
2019-04-30T09:24:46.476Z,22.44
2019-04-30T09:25:46.950Z,23.16
2019-04-30T09:26:49.317Z,22.99
2019-04-30T09:27:48.819Z,22.60
2019-04-30T09:28:49.414Z,22.27
2019-04-30T09:29:49.224Z,22.88
2019-04-30T09:30:50.292Z,24.22
2019-04-30T09:31:49.761Z,23.48
2019-04-30T09:32:50.233Z,22.26
2019-04-30T09:33:50.695Z,20.39
2019-04-30T09:34:51.163Z,21.98
2019-04-30T09:35:51.653Z,23.08
2019-04-30T09:36:52.110Z,25.67
2019-04-30T09:37:58.999Z,25.66
2019-04-30T09:38:53.040Z,25.73
2019-04-30T09:39:53.513Z,25.70
2019-04-30T09:40:53.987Z,25.46
2019-04-30T09:41:54.446Z,25.78
2019-04-30T09:42:54.911Z,25.59
2019-04-30T09:43:55.393Z,27.17
2019-04-30T09:44:59.086Z,27.61
2019-04-30T09:45:56.318Z,30.66
2019-04-30T09:46:58.711Z,28.85
2019-04-30T09:47:59.124Z,26.61
2019-04-30T09:48:59.682Z,24.73
2019-04-30T09:49:59.678Z,25.73
2019-04-30T09:51:00.811Z,25.43
2019-04-30T09:51:59.705Z,23.94
2019-04-30T09:53:00.574Z,20.98
2019-04-30T09:54:03.299Z,20.32
2019-04-30T09:55:00.958Z,20.42
2019-04-30T09:56:01.016Z,20.44
2019-04-30T09:57:01.479Z,21.98
2019-04-30T09:58:13.984Z,23.21
2019-04-30T09:59:02.415Z,23.61
2019-04-30T10:00:02.895Z,23.40
2019-04-30T10:01:03.362Z,24.93
2019-04-30T10:02:03.850Z,24.34
2019-04-30T10:03:04.444Z,22.17
2019-04-30T10:04:05.196Z,19.47
2019-04-30T10:05:05.737Z,19.19
2019-04-30T10:06:05.706Z,20.87
2019-04-30T10:07:06.164Z,25.60
2019-04-30T10:08:06.637Z,26.34
2019-04-30T10:09:07.106Z,24.63
2019-04-30T10:10:09.525Z,24.68
2019-04-30T10:11:09.742Z,22.99
2019-04-30T10:12:09.666Z,22.13
2019-04-30T10:13:09.034Z,21.64
2019-04-30T10:14:09.454Z,21.01
2019-04-30T10:15:09.923Z,19.73
2019-04-30T10:16:10.390Z,20.09
2019-04-30T10:17:10.870Z,22.23
2019-04-30T10:18:11.329Z,25.10
2019-04-30T10:19:11.824Z,24.67
2019-04-30T10:20:12.267Z,23.39
2019-04-30T10:21:12.743Z,21.43
2019-04-30T10:22:13.208Z,20.58
2019-04-30T10:23:13.681Z,19.53
2019-04-30T10:24:15.735Z,19.65
2019-04-30T10:25:14.627Z,19.06
2019-04-30T10:26:15.096Z,19.44
2019-04-30T10:27:15.567Z,19.44
2019-04-30T10:28:16.047Z,19.21
2019-04-30T10:29:16.514Z,18.85
2019-04-30T10:30:16.985Z,18.19
2019-04-30T10:31:18.749Z,19.96
2019-04-30T10:32:18.693Z,18.23
2019-04-30T10:33:19.606Z,18.32
2019-04-30T10:34:18.867Z,18.66
2019-04-30T10:35:20.376Z,17.22
2019-04-30T10:36:19.805Z,18.16
2019-04-30T10:37:20.279Z,18.17
2019-04-30T10:38:20.760Z,21.54
2019-04-30T10:39:21.696Z,25.81
2019-04-30T10:40:21.701Z,25.81
2019-04-30T10:41:22.173Z,25.70
2019-04-30T10:42:22.643Z,23.29
2019-04-30T10:43:23.108Z,22.84
2019-04-30T10:44:23.589Z,22.86
2019-04-30T10:45:24.049Z,20.79
2019-04-30T10:46:24.535Z,19.46
2019-04-30T10:47:25.004Z,22.88
2019-04-30T10:48:25.499Z,24.72
2019-04-30T10:49:25.983Z,21.23
2019-04-30T10:50:26.421Z,21.43
2019-04-30T10:51:28.753Z,20.80
2019-04-30T10:52:29.176Z,18.45
2019-04-30T10:53:27.832Z,20.07
2019-04-30T10:54:28.973Z,21.62
2019-04-30T10:55:31.147Z,20.55
2019-04-30T10:56:29.252Z,21.61
2019-04-30T10:57:29.706Z,20.09
2019-04-30T10:58:30.185Z,19.23
2019-04-30T10:59:30.673Z,19.16
2019-04-30T11:00:31.131Z,18.27
2019-04-30T11:01:31.639Z,18.37
2019-04-30T11:02:32.087Z,18.63
2019-04-30T11:03:32.531Z,20.26
2019-04-30T11:04:33.013Z,20.20
2019-04-30T11:05:33.469Z,18.78
2019-04-30T11:06:33.948Z,19.37
2019-04-30T11:07:34.423Z,22.54
2019-04-30T11:08:34.887Z,21.91
2019-04-30T11:09:35.370Z,21.61
2019-04-30T11:10:35.828Z,21.08
2019-04-30T11:11:36.310Z,19.46
2019-04-30T11:12:36.771Z,18.91
2019-04-30T11:13:37.259Z,19.61
2019-04-30T11:14:37.720Z,21.12
2019-04-30T11:15:39.428Z,23.93
2019-04-30T11:16:38.668Z,23.33
2019-04-30T11:17:39.710Z,21.41
2019-04-30T11:18:39.783Z,23.00
2019-04-30T11:19:40.204Z,22.31
2019-04-30T11:20:40.732Z,24.54
2019-04-30T11:21:41.093Z,23.71
2019-04-30T11:22:41.673Z,22.41
2019-04-30T11:23:42.183Z,20.32
2019-04-30T11:24:56.730Z,20.08
2019-04-30T11:25:43.424Z,22.20
2019-04-30T11:26:44.018Z,21.25
2019-04-30T11:27:44.339Z,20.39
2019-04-30T11:28:44.506Z,20.31
2019-04-30T11:29:44.980Z,19.54
2019-04-30T11:30:45.399Z,20.47
2019-04-30T11:31:45.947Z,19.65
2019-04-30T11:32:46.337Z,18.40
2019-04-30T11:33:47.011Z,18.40
2019-04-30T11:34:47.130Z,19.06
2019-04-30T11:35:49.264Z,18.49
2019-04-30T11:36:48.073Z,18.93
2019-04-30T11:37:48.541Z,21.36
2019-04-30T11:38:49.009Z,23.85
2019-04-30T11:39:49.476Z,25.29
2019-04-30T11:40:49.935Z,26.51
2019-04-30T11:41:50.413Z,27.01
2019-04-30T11:42:50.870Z,27.37
2019-04-30T11:43:51.339Z,28.49
2019-04-30T11:44:51.791Z,28.88
2019-04-30T11:45:52.256Z,28.69
2019-04-30T11:46:52.696Z,29.06
2019-04-30T11:47:53.774Z,30.38
2019-04-30T11:48:53.624Z,31.02
2019-04-30T11:49:54.066Z,31.30
2019-04-30T11:50:54.521Z,31.98
2019-04-30T11:51:54.972Z,31.99
2019-04-30T11:53:09.622Z,31.98
2019-04-30T11:53:55.878Z,31.80
2019-04-30T11:54:56.329Z,31.92
2019-04-30T11:55:56.767Z,32.03
2019-04-30T11:56:58.849Z,31.15
2019-04-30T11:57:59.213Z,32.09
2019-04-30T11:58:58.867Z,32.09
2019-04-30T11:59:58.577Z,32.10
2019-04-30T12:00:59.267Z,32.10
2019-04-30T12:01:59.456Z,31.15
2019-04-30T12:02:59.902Z,31.32
2019-04-30T12:04:00.343Z,31.23
2019-04-30T12:05:00.803Z,31.51
2019-04-30T12:06:01.242Z,32.18
2019-04-30T12:07:01.680Z,32.47
2019-04-30T12:08:02.121Z,34.39
2019-04-30T12:09:02.570Z,34.01
2019-04-30T12:10:03.013Z,33.64
2019-04-30T12:11:03.458Z,33.54
2019-04-30T12:12:03.904Z,34.49
2019-04-30T12:13:04.408Z,33.05
2019-04-30T12:14:04.777Z,33.05
2019-04-30T12:15:05.215Z,32.86
2019-04-30T12:16:05.663Z,32.09
2019-04-30T12:17:06.120Z,33.42
2019-04-30T12:18:06.577Z,33.78
2019-04-30T12:19:08.915Z,34.38
2019-04-30T12:20:08.632Z,33.80
2019-04-30T12:21:07.878Z,33.51
2019-04-30T12:22:08.347Z,33.31
2019-04-30T12:23:11.749Z,33.40
2019-04-30T12:24:09.199Z,33.59
2019-04-30T12:25:10.128Z,34.06
2019-04-30T12:26:10.081Z,33.88
2019-04-30T12:27:10.524Z,34.27
2019-04-30T12:28:10.961Z,33.98
2019-04-30T12:29:11.403Z,33.31
2019-04-30T12:30:11.872Z,33.13
2019-04-30T12:31:12.294Z,32.75
2019-04-30T12:32:12.737Z,33.32
2019-04-30T12:33:13.162Z,33.80
2019-04-30T12:34:13.607Z,33.42
2019-04-30T12:35:14.073Z,33.23
2019-04-30T12:36:15.486Z,33.51
2019-04-30T12:37:14.963Z,33.91
2019-04-30T12:38:15.386Z,34.49
2019-04-30T12:39:15.886Z,34.19
2019-04-30T12:40:26.715Z,34.47
2019-04-30T12:41:16.698Z,34.19
2019-04-30T12:42:18.843Z,34.19
2019-04-30T12:44:18.022Z,33.53
2019-04-30T12:45:19.438Z,34.28
2019-04-30T12:46:21.230Z,34.47
2019-04-30T12:47:21.732Z,33.80
2019-04-30T12:48:20.347Z,33.82
2019-04-30T12:49:20.238Z,34.09
2019-04-30T12:50:41.854Z,34.11
2019-04-30T12:51:21.122Z,33.72
2019-04-30T12:52:21.580Z,33.24
2019-04-30T12:53:22.015Z,33.72
2019-04-30T12:54:22.478Z,34.57
2019-04-30T12:55:22.859Z,34.57
2019-04-30T12:56:44.479Z,34.63
2019-04-30T12:57:23.733Z,34.45
2019-04-30T12:58:24.165Z,34.57
2019-04-30T12:59:24.618Z,34.57
2019-04-30T13:00:25.083Z,34.67
2019-04-30T13:01:25.486Z,35.16
2019-04-30T13:02:47.150Z,35.16
2019-04-30T13:03:28.387Z,35.14
2019-04-30T13:04:26.838Z,35.83
2019-04-30T13:05:27.237Z,35.16
2019-04-30T13:06:28.345Z,35.06
2019-04-30T13:07:30.357Z,35.26
2019-04-30T13:08:52.238Z,35.26
2019-04-30T13:09:30.062Z,35.16
2019-04-30T13:10:29.916Z,34.78
2019-04-30T13:11:30.764Z,34.20
2019-04-30T13:12:30.674Z,34.68
2019-04-30T13:13:32.107Z,34.49
2019-04-30T13:14:54.699Z,34.49
2019-04-30T13:15:31.680Z,35.26
2019-04-30T13:16:32.071Z,34.68
2019-04-30T13:17:32.509Z,34.39
2019-04-30T13:18:32.952Z,34.38
2019-04-30T13:19:33.391Z,35.14
2019-04-30T13:20:55.099Z,34.47
2019-04-30T13:21:34.273Z,34.47
2019-04-30T13:22:34.726Z,34.28
2019-04-30T13:23:35.142Z,34.30
2019-04-30T13:24:35.624Z,33.24
2019-04-30T13:25:48.010Z,33.53
2019-04-30T13:26:59.395Z,33.72